createdAt,value
2019-04-22T00:00:34.554Z,99337.95
2019-04-22T00:03:03.654Z,99339.77
2019-04-22T00:05:51.969Z,99324.36
2019-04-22T00:08:24.754Z,99331.76
2019-04-22T00:10:56.093Z,99331.61
2019-04-22T00:13:26.322Z,99337.23
2019-04-22T00:15:55.331Z,99330.36
2019-04-22T00:18:40.581Z,99332.69
2019-04-22T00:20:58.204Z,99326.48
2019-04-22T00:23:29.208Z,99325.70
2019-04-22T00:25:55.901Z,99320.79
2019-04-22T00:28:21.616Z,99317.85
2019-04-22T00:30:56.118Z,99316.89
2019-04-22T00:33:20.542Z,99311.98
2019-04-22T00:35:54.809Z,99314.29
2019-04-22T00:38:24.002Z,99310.03
2019-04-22T00:40:56.214Z,99313.01
2019-04-22T00:43:24.639Z,99308.77
2019-04-22T00:45:49.283Z,99303.84
2019-04-22T00:51:01.303Z,99303.70
2019-04-22T00:58:46.444Z,99301.80
2019-04-22T01:01:19.803Z,99305.56
2019-04-22T01:03:50.961Z,99262.33
2019-04-22T01:06:17.314Z,99301.83
2019-04-22T01:08:48.147Z,99306.12
2019-04-22T01:11:17.298Z,99302.01
2019-04-22T01:13:38.346Z,99303.66
2019-04-22T01:16:15.310Z,99306.13
2019-04-22T01:18:43.699Z,99298.77
2019-04-22T01:21:25.894Z,99299.89
2019-04-22T01:23:43.801Z,99298.08
2019-04-22T01:26:09.881Z,99291.19
2019-04-22T01:28:39.932Z,99296.12
2019-04-22T01:31:02.884Z,99290.88
2019-04-22T01:33:33.381Z,99287.94
2019-04-22T01:36:13.684Z,99287.13
2019-04-22T01:38:51.208Z,99287.95
2019-04-22T01:41:25.075Z,99281.41
2019-04-22T01:43:58.816Z,99284.37
2019-04-22T01:46:24.763Z,99278.80
2019-04-22T01:48:47.310Z,99279.79
2019-04-22T01:51:12.234Z,99281.28
2019-04-22T01:53:50.637Z,99282.91
2019-04-22T01:56:24.231Z,99279.66
2019-04-22T01:58:38.276Z,99273.25
2019-04-22T02:01:22.335Z,99271.62
2019-04-22T02:03:57.834Z,99272.09
2019-04-22T02:06:29.079Z,99271.61
2019-04-22T02:08:53.046Z,99274.90
2019-04-22T02:11:26.161Z,99272.92
2019-04-22T02:13:50.622Z,99266.55
2019-04-22T02:16:21.439Z,99266.19
2019-04-22T02:18:58.387Z,99265.72
2019-04-22T02:21:15.033Z,99259.48
2019-04-22T02:26:31.412Z,99254.26
2019-04-22T02:29:01.115Z,99254.23
2019-04-22T02:38:59.793Z,99247.52
2019-04-22T02:41:28.860Z,99241.45
2019-04-22T02:44:12.587Z,99239.33
2019-04-22T02:49:01.010Z,99231.78
2019-04-22T02:51:30.078Z,99230.13
2019-04-22T02:56:31.925Z,99226.53
2019-04-22T03:04:06.982Z,99220.77
2019-04-22T03:06:26.035Z,99216.86
2019-04-22T03:08:45.988Z,99217.69
2019-04-22T03:11:18.977Z,99217.98
2019-04-22T03:13:56.011Z,99211.28
2019-04-22T03:16:34.843Z,99213.91
2019-04-22T03:19:02.870Z,99215.86
2019-04-22T03:21:20.061Z,99201.61
2019-04-22T03:23:55.722Z,99205.19
2019-04-22T03:39:38.471Z,99208.23
2019-04-22T03:44:31.872Z,99206.20
2019-04-22T03:49:58.900Z,99207.02
2019-04-22T03:52:16.174Z,99210.30
2019-04-22T03:54:45.851Z,99201.42
2019-04-22T04:02:24.069Z,99196.80
2019-04-22T04:04:39.352Z,99191.87
2019-04-22T04:12:26.037Z,99187.10
2019-04-22T04:14:47.101Z,99178.45
2019-04-22T04:17:10.774Z,99180.42
2019-04-22T04:19:45.984Z,99178.63
2019-04-22T04:22:59.019Z,99174.88
2019-04-22T04:27:53.598Z,99171.27
2019-04-22T04:30:13.978Z,99174.36
2019-04-22T04:32:43.075Z,99171.59
2019-04-22T04:37:44.983Z,99170.66
2019-04-22T04:40:12.515Z,99167.89
2019-04-22T04:42:43.675Z,99166.11
2019-04-22T04:45:26.538Z,99167.09
2019-04-22T04:55:18.119Z,99173.56
2019-04-22T04:57:43.472Z,99172.73
2019-04-22T05:05:20.679Z,99172.45
2019-04-22T05:10:09.876Z,99187.66
2019-04-22T05:12:45.378Z,99190.31
2019-04-22T05:15:09.066Z,99180.22
2019-04-22T05:17:38.467Z,99181.09
2019-04-22T05:20:06.726Z,99174.72
2019-04-22T05:22:28.308Z,99176.88
2019-04-22T05:25:02.902Z,99169.27
2019-04-22T05:27:32.978Z,99174.41
2019-04-22T05:30:18.627Z,99174.09
2019-04-22T05:32:27.065Z,99171.97
2019-04-22T05:34:57.230Z,99169.42
2019-04-22T05:39:52.441Z,99171.18
2019-04-22T05:42:20.274Z,99171.50
2019-04-22T05:45:10.176Z,99166.89
2019-04-22T05:47:22.484Z,99163.77
2019-04-22T05:49:47.770Z,99162.69
2019-04-22T05:52:22.394Z,99162.30
2019-04-22T05:54:55.354Z,99156.47
2019-04-22T05:57:18.301Z,99154.95
2019-04-22T05:59:57.315Z,99157.73
2019-04-22T06:02:31.400Z,99155.36
2019-04-22T06:04:51.833Z,99149.75
2019-04-22T06:07:19.713Z,99147.70
2019-04-22T06:09:49.867Z,99142.20
2019-04-22T06:12:18.556Z,99142.77
2019-04-22T06:14:54.321Z,99140.51
2019-04-22T06:17:24.852Z,99132.43
2019-04-22T06:19:54.158Z,99136.20
2019-04-22T06:22:30.369Z,99133.31
2019-04-22T06:24:57.233Z,99128.67
2019-04-22T06:27:31.017Z,99124.72
2019-04-22T06:29:54.976Z,99125.98
2019-04-22T06:34:59.474Z,99117.55
2019-04-22T06:37:26.199Z,99112.41
2019-04-22T06:39:52.367Z,99110.25
2019-04-22T06:42:28.389Z,99106.36
2019-04-22T06:44:58.765Z,99105.34
2019-04-22T06:47:40.107Z,99100.69
2019-04-22T06:49:55.496Z,99103.41
2019-04-22T06:52:52.377Z,99097.47
2019-04-22T06:55:23.281Z,99100.33
2019-04-22T06:57:44.814Z,99095.39
2019-04-22T07:00:20.210Z,99086.69
2019-04-22T07:03:13.755Z,99078.78
2019-04-22T07:05:19.670Z,99077.28
2019-04-22T07:07:45.568Z,99070.81
2019-04-22T07:12:41.815Z,99064.40
2019-04-22T07:15:23.181Z,99051.48
2019-04-22T07:17:50.785Z,99044.06
2019-04-22T07:20:18.040Z,99035.41
2019-04-22T07:22:45.171Z,99034.70
2019-04-22T07:25:17.767Z,99034.25
2019-04-22T07:27:44.620Z,99034.16
2019-04-22T07:30:15.212Z,99030.61
2019-04-22T07:38:18.735Z,99005.88
2019-04-22T07:40:48.772Z,99015.13
2019-04-22T07:43:19.595Z,99018.87
2019-04-22T07:45:44.325Z,99018.51
2019-04-22T07:48:18.889Z,99013.64
2019-04-22T07:53:14.338Z,99004.06
2019-04-22T07:55:39.624Z,99006.22
2019-04-22T07:58:11.762Z,99003.60
2019-04-22T08:01:02.041Z,98998.16
2019-04-22T08:03:24.474Z,98994.48
2019-04-22T08:05:52.131Z,98991.22
2019-04-22T08:08:24.233Z,98987.27
2019-04-22T08:13:19.581Z,98978.66
2019-04-22T08:18:20.364Z,98976.88
2019-04-22T08:20:52.053Z,98977.41
2019-04-22T08:23:20.472Z,98966.57
2019-04-22T08:25:52.671Z,98959.99
2019-04-22T08:28:24.082Z,98955.30
2019-04-22T08:30:49.180Z,98953.91
2019-04-22T08:33:22.054Z,98929.05
2019-04-22T08:36:00.505Z,98948.47
2019-04-22T08:38:14.690Z,98942.58
2019-04-22T08:41:23.143Z,98944.05
2019-04-22T08:43:56.567Z,98940.29
2019-04-22T08:46:25.317Z,98942.30
2019-04-22T08:48:47.463Z,98934.96
2019-04-22T08:51:13.545Z,98932.11
2019-04-22T08:53:58.892Z,98916.84
2019-04-22T08:58:50.806Z,98918.71
2019-04-22T09:01:19.197Z,98904.60
2019-04-22T09:03:56.613Z,98905.89
2019-04-22T09:06:34.204Z,98911.55
2019-04-22T09:08:55.223Z,98896.84
2019-04-22T09:11:20.221Z,98894.98
2019-04-22T09:13:49.821Z,98893.30
2019-04-22T09:16:20.711Z,98882.97
2019-04-22T09:18:52.735Z,98883.41
2019-04-22T09:23:56.805Z,98870.80
2019-04-22T09:26:27.094Z,98869.06
2019-04-22T09:28:54.863Z,98864.14
2019-04-22T09:31:33.746Z,98854.98
2019-04-22T09:33:43.237Z,98855.17
2019-04-22T09:36:22.738Z,98860.52
2019-04-22T09:41:22.725Z,98850.87
2019-04-22T09:46:15.121Z,98840.97
2019-04-22T09:51:12.325Z,98830.49
2019-04-22T09:56:18.234Z,98820.02
2019-04-22T09:58:44.615Z,98814.34
2019-04-22T10:01:25.847Z,98816.66
2019-04-22T10:03:51.638Z,98808.49
2019-04-22T10:06:23.220Z,98805.63
2019-04-22T10:11:23.571Z,98807.34
2019-04-22T10:13:47.617Z,98798.20
2019-04-22T10:16:20.259Z,98793.81
2019-04-22T10:18:47.135Z,98784.08
2019-04-22T10:21:16.562Z,98787.66
2019-04-22T10:23:45.764Z,98780.44
2019-04-22T10:26:13.055Z,98769.55
2019-04-22T10:28:44.450Z,98777.39
2019-04-22T10:31:19.175Z,98776.56
2019-04-22T10:33:38.392Z,98764.00
2019-04-22T10:35:47.721Z,98763.11
2019-04-22T10:38:16.605Z,98750.84
2019-04-22T10:40:45.103Z,98742.31
2019-04-22T10:43:12.959Z,98752.78
2019-04-22T10:45:42.040Z,98747.67
2019-04-22T10:48:10.520Z,98740.81
2019-04-22T10:50:48.732Z,98738.28
2019-04-22T10:53:17.806Z,98731.91
2019-04-22T11:06:40.973Z,98695.16
2019-04-22T11:09:07.052Z,98684.47
2019-04-22T11:11:58.404Z,98685.51
2019-04-22T11:14:21.071Z,98680.01
2019-04-22T11:16:49.765Z,98675.53
2019-04-22T11:19:19.060Z,98672.42
2019-04-22T11:21:59.907Z,98675.95
2019-04-22T11:24:19.210Z,98665.39
2019-04-22T11:26:47.315Z,98666.20
2019-04-22T11:29:15.509Z,98660.80
2019-04-22T11:31:44.354Z,98655.13
2019-04-22T11:34:12.999Z,98651.23
2019-04-22T11:36:41.259Z,98655.94
2019-04-22T11:39:12.821Z,98647.53
2019-04-22T11:41:46.311Z,98646.78
2019-04-22T11:44:15.149Z,98641.99
2019-04-22T11:46:43.417Z,98641.98
2019-04-22T11:49:12.134Z,98635.39
2019-04-22T11:51:40.237Z,98629.02
2019-04-22T11:54:08.211Z,98625.81
2019-04-22T11:56:36.955Z,98621.02
2019-04-22T11:59:04.948Z,98621.92
2019-04-22T12:01:33.040Z,98621.95
2019-04-22T12:04:02.168Z,98620.64
2019-04-22T12:06:31.618Z,98615.30
2019-04-22T12:08:59.694Z,98609.30
2019-04-22T12:11:32.593Z,98601.98
2019-04-22T12:14:02.029Z,98602.16
2019-04-22T12:16:31.537Z,98600.61
2019-04-22T12:19:00.764Z,98594.20
2019-04-22T12:21:29.195Z,98597.70
2019-04-22T12:23:56.966Z,98574.98
2019-04-22T12:26:25.471Z,98578.94
2019-04-22T12:28:55.113Z,98576.98
2019-04-22T12:31:29.328Z,98571.13
2019-04-22T12:33:57.402Z,98569.59
2019-04-22T12:36:26.464Z,98559.73
2019-04-22T12:38:55.657Z,98551.86
2019-04-22T12:41:23.749Z,98553.98
2019-04-22T12:43:51.627Z,98555.44
2019-04-22T12:46:20.500Z,98551.24
2019-04-22T12:48:49.874Z,98544.37
2019-04-22T12:51:23.108Z,98540.59
2019-04-22T12:53:51.055Z,98534.52
2019-04-22T12:56:19.657Z,98528.61
2019-04-22T12:59:17.341Z,98529.91
2019-04-22T13:02:56.871Z,98525.30
2019-04-22T13:05:25.107Z,98505.82
2019-04-22T13:07:53.738Z,98502.45
2019-04-22T13:10:21.985Z,98502.88
2019-04-22T13:12:50.947Z,98505.63
2019-04-22T13:15:20.066Z,98495.00
2019-04-22T13:18:02.295Z,98481.64
2019-04-22T13:20:19.844Z,98483.31
2019-04-22T13:22:48.631Z,98477.55
2019-04-22T13:25:20.709Z,98480.61
2019-04-22T13:27:49.108Z,98474.13
2019-04-22T13:30:18.828Z,98473.77
2019-04-22T13:32:47.147Z,98467.11
2019-04-22T13:35:20.027Z,98462.21
2019-04-22T13:37:46.828Z,98459.05
2019-04-22T13:40:16.656Z,98454.81
2019-04-22T13:42:46.867Z,98454.42
2019-04-22T13:45:17.862Z,98448.47
2019-04-22T13:48:01.527Z,98447.23
2019-04-22T13:50:54.500Z,98443.04
2019-04-22T13:53:30.102Z,98444.88
2019-04-22T13:55:45.124Z,98441.86
2019-04-22T13:58:04.154Z,98427.06
2019-04-22T14:00:24.913Z,98412.92
2019-04-22T14:03:10.892Z,98428.69
2019-04-22T14:05:40.567Z,98426.27
2019-04-22T14:08:10.246Z,98425.49
2019-04-22T14:10:38.659Z,98421.34
2019-04-22T14:13:07.747Z,98418.79
2019-04-22T14:15:37.985Z,98414.69
2019-04-22T14:18:07.298Z,98406.22
2019-04-22T14:20:36.753Z,98408.31
2019-04-22T14:23:20.488Z,98400.70
2019-04-22T14:25:48.525Z,98399.80
2019-04-22T14:28:19.060Z,98390.48
2019-04-22T14:30:46.431Z,98391.69
2019-04-22T14:33:14.250Z,98393.38
2019-04-22T14:35:42.007Z,98390.42
2019-04-22T14:38:10.184Z,98388.77
2019-04-22T14:40:38.639Z,98384.66
2019-04-22T14:43:33.285Z,98374.91
2019-04-22T14:46:11.713Z,98382.34
2019-04-22T14:48:37.340Z,98371.09
2019-04-22T14:50:56.267Z,98368.88
2019-04-22T14:53:30.793Z,98361.97
2019-04-22T14:55:38.593Z,98369.50
2019-04-22T14:58:09.022Z,98371.84
2019-04-22T15:00:38.176Z,98365.04
2019-04-22T15:03:08.246Z,98364.69
2019-04-22T15:05:36.576Z,98359.12
2019-04-22T15:08:04.753Z,98365.11
2019-04-22T15:10:33.765Z,98364.98
2019-04-22T15:13:17.877Z,98358.72
2019-04-22T15:16:03.171Z,98354.53
2019-04-22T15:18:58.036Z,98350.47
2019-04-22T15:21:27.213Z,98344.88
2019-04-22T15:23:56.367Z,98340.60
2019-04-22T15:26:26.430Z,98345.13
2019-04-22T15:28:55.458Z,98338.73
2019-04-22T15:31:24.399Z,98334.94
2019-04-22T15:33:52.547Z,98338.80
2019-04-22T15:36:22.074Z,98337.83
2019-04-22T15:38:51.344Z,98325.11
2019-04-22T15:41:23.028Z,98327.16
2019-04-22T15:43:52.071Z,98325.54
2019-04-22T15:46:20.443Z,98317.51
2019-04-22T15:48:48.619Z,98317.51
2019-04-22T15:51:16.815Z,98318.36
2019-04-22T15:53:45.446Z,98311.17
2019-04-22T15:56:18.511Z,98310.52
2019-04-22T15:58:47.999Z,98316.06
2019-04-22T16:01:23.941Z,98312.95
2019-04-22T16:03:47.087Z,98309.11
2019-04-22T16:06:15.808Z,98310.09
2019-04-22T16:08:43.998Z,98304.27
2019-04-22T16:11:13.799Z,98303.38
2019-04-22T16:13:42.461Z,98308.51
2019-04-22T16:16:20.683Z,98306.19
2019-04-22T16:18:50.348Z,98310.38
2019-04-22T16:21:30.160Z,98309.58
2019-04-22T16:24:04.524Z,98304.61
2019-04-22T16:26:58.215Z,98309.34
2019-04-22T16:29:27.361Z,98305.19
2019-04-22T16:31:55.746Z,98301.58
2019-04-22T16:34:23.987Z,98298.40
2019-04-22T16:36:52.723Z,98293.93
2019-04-22T16:39:20.818Z,98290.23
2019-04-22T16:41:54.954Z,98292.81
2019-04-22T16:44:24.504Z,98289.14
2019-04-22T16:46:52.885Z,98289.92
2019-04-22T16:49:21.516Z,98292.98
2019-04-22T16:51:49.965Z,98290.09
2019-04-22T16:54:18.057Z,98288.44
2019-04-22T16:56:45.867Z,98286.20
2019-04-22T16:59:14.868Z,98285.78
2019-04-22T17:02:02.379Z,98286.14
2019-04-22T17:04:48.783Z,98289.09
2019-04-22T17:07:20.358Z,98288.45
2019-04-22T17:09:48.370Z,98292.05
2019-04-22T17:12:16.327Z,98287.31
2019-04-22T17:14:50.496Z,98295.90
2019-04-22T17:17:14.891Z,98290.08
2019-04-22T17:19:43.118Z,98287.86
2019-04-22T17:22:13.411Z,98285.67
2019-04-22T17:24:41.606Z,98286.98
2019-04-22T17:27:10.634Z,98283.30
2019-04-22T17:29:38.709Z,98283.19
2019-04-22T17:32:11.725Z,98286.16
2019-04-22T17:34:36.298Z,98293.86
2019-04-22T17:37:11.233Z,98289.50
2019-04-22T17:39:45.344Z,98289.88
2019-04-22T17:42:25.254Z,98294.23
2019-04-22T17:45:17.625Z,98298.36
2019-04-22T17:48:04.336Z,98296.91
2019-04-22T17:50:36.224Z,98305.31
2019-04-22T17:53:09.900Z,98305.85
2019-04-22T17:55:36.473Z,98306.95
2019-04-22T17:58:03.977Z,98304.60
2019-04-22T18:00:30.833Z,98308.63
2019-04-22T18:02:58.437Z,98316.30
2019-04-22T18:05:17.142Z,98322.16
2019-04-22T18:08:10.108Z,98317.39
2019-04-22T18:10:36.035Z,98325.63
2019-04-22T18:13:15.745Z,98326.17
2019-04-22T18:15:37.744Z,98326.78
2019-04-22T18:18:12.801Z,98326.26
2019-04-22T18:20:29.346Z,98335.52
2019-04-22T18:22:58.072Z,98338.72
2019-04-22T18:25:33.916Z,98340.55
2019-04-22T18:28:15.058Z,98340.74
2019-04-22T18:30:32.916Z,98348.41
2019-04-22T18:33:25.311Z,98348.02
2019-04-22T18:35:55.258Z,98355.25
2019-04-22T18:38:42.360Z,98356.64
2019-04-22T18:40:54.744Z,98359.16
2019-04-22T18:43:27.637Z,98363.00
2019-04-22T18:46:00.237Z,98363.16
2019-04-22T18:48:16.440Z,98361.80
2019-04-22T18:51:17.243Z,98363.05
2019-04-22T18:53:53.793Z,98369.11
2019-04-22T18:56:25.421Z,98370.72
2019-04-22T18:58:49.909Z,98375.39
2019-04-22T19:01:08.177Z,98378.34
2019-04-22T19:03:48.981Z,98380.45
2019-04-22T19:06:38.302Z,98378.06
2019-04-22T19:09:03.597Z,98387.30
2019-04-22T19:11:37.448Z,98383.61
2019-04-22T19:14:19.104Z,98401.66
2019-04-22T19:16:46.225Z,98397.44
2019-04-22T19:19:22.529Z,98397.45
2019-04-22T19:21:36.607Z,98397.20
2019-04-22T19:23:59.981Z,98401.27
2019-04-22T19:26:44.369Z,98399.51
2019-04-22T19:29:02.247Z,98401.05
2019-04-22T19:31:28.581Z,98405.88
2019-04-22T19:34:03.090Z,98411.64
2019-04-22T19:36:33.140Z,98407.52
2019-04-22T19:38:59.148Z,98409.78
2019-04-22T19:41:29.181Z,98410.51
2019-04-22T19:44:05.753Z,98413.37
2019-04-22T19:46:28.141Z,98410.53
2019-04-22T19:49:06.578Z,98411.33
2019-04-22T19:51:37.020Z,98412.97
2019-04-22T19:54:01.366Z,98412.34
2019-04-22T19:56:22.754Z,98413.27
2019-04-22T19:58:56.264Z,98410.38
2019-04-22T20:02:07.363Z,98410.83
2019-04-22T20:04:52.806Z,98413.53
2019-04-22T20:07:17.969Z,98418.75
2019-04-22T20:09:52.225Z,98415.02
2019-04-22T20:12:19.004Z,98419.09
2019-04-22T20:14:49.406Z,98411.25
2019-04-22T20:17:24.494Z,98408.59
2019-04-22T20:19:57.764Z,98405.73
2019-04-22T20:22:26.702Z,98409.05
2019-04-22T20:24:43.405Z,98380.81
2019-04-22T20:27:22.523Z,98404.03
2019-04-22T20:29:55.107Z,98412.39
2019-04-22T20:32:23.383Z,98411.62
2019-04-22T20:34:57.539Z,98412.39
2019-04-22T20:37:34.275Z,98414.85
2019-04-22T20:39:57.184Z,98406.61
2019-04-22T20:42:43.217Z,98417.11
2019-04-22T20:44:52.256Z,98408.97
2019-04-22T20:47:19.203Z,98409.05
2019-04-22T20:49:55.349Z,98412.67
2019-04-22T20:52:26.452Z,98412.25
2019-04-22T20:54:49.051Z,98414.00
2019-04-22T20:57:15.220Z,98411.94
2019-04-22T20:59:48.468Z,98415.11
2019-04-22T21:02:16.408Z,98425.52
2019-04-22T21:04:41.560Z,98419.02
2019-04-22T21:07:13.814Z,98416.83
2019-04-22T21:09:50.594Z,98416.66
2019-04-22T21:12:13.936Z,98422.14
2019-04-22T21:14:52.300Z,98421.02
2019-04-22T21:17:17.164Z,98416.74
2019-04-22T21:19:54.393Z,98421.58
2019-04-22T21:22:21.055Z,98430.85
2019-04-22T21:24:46.060Z,98427.27
2019-04-22T21:27:20.487Z,98424.00
2019-04-22T21:29:43.521Z,98428.70
2019-04-22T21:32:31.253Z,98428.24
2019-04-22T21:35:03.874Z,98430.52
2019-04-22T21:37:32.994Z,98427.85
2019-04-22T21:39:54.550Z,98425.61
2019-04-22T21:42:26.563Z,98423.97
2019-04-22T21:44:51.207Z,98420.34
2019-04-22T21:47:30.179Z,98418.94
2019-04-22T21:50:04.432Z,98407.14
2019-04-22T21:52:28.028Z,98420.86
2019-04-22T21:54:59.661Z,98420.05
2019-04-22T21:57:50.516Z,98417.28
2019-04-22T22:00:22.692Z,98415.52
2019-04-22T22:02:45.786Z,98410.23
2019-04-22T22:05:14.338Z,98404.12
2019-04-22T22:07:29.574Z,98404.08
2019-04-22T22:10:15.033Z,98399.05
2019-04-22T22:12:48.466Z,98400.78
2019-04-22T22:15:22.748Z,98394.50
2019-04-22T22:17:42.298Z,98394.49
2019-04-22T22:20:09.957Z,98398.38
2019-04-22T22:22:53.642Z,98394.38
2019-04-22T22:25:14.392Z,98391.55
2019-04-22T22:27:46.594Z,98393.05
2019-04-22T22:30:36.931Z,98388.00
2019-04-22T22:32:51.426Z,98386.56
2019-04-22T22:35:16.871Z,98383.54
2019-04-22T22:37:44.615Z,98378.19
2019-04-22T22:40:01.203Z,98375.75
2019-04-22T22:42:32.261Z,98375.88
2019-04-22T22:45:05.971Z,98373.19
2019-04-22T22:47:40.943Z,98367.94
2019-04-22T22:50:10.926Z,98360.55
2019-04-22T22:53:11.242Z,98367.67
2019-04-22T22:55:13.392Z,98368.41
2019-04-22T22:57:44.709Z,98361.58
2019-04-22T23:00:15.130Z,98357.57
2019-04-22T23:02:59.519Z,98354.30
2019-04-22T23:05:10.417Z,98353.50
2019-04-22T23:07:47.600Z,98345.98
2019-04-22T23:10:11.291Z,98339.49
2019-04-22T23:13:01.586Z,98335.69
2019-04-22T23:15:09.364Z,98347.61
2019-04-22T23:17:25.707Z,98341.25
2019-04-22T23:19:52.782Z,98343.63
2019-04-22T23:22:28.440Z,98339.22
2019-04-22T23:25:14.055Z,98339.93
2019-04-22T23:27:40.260Z,98343.11
2019-04-22T23:30:19.272Z,98339.51
2019-04-22T23:32:57.800Z,98335.11
2019-04-22T23:35:49.159Z,98332.57
2019-04-22T23:38:23.149Z,98327.50
2019-04-22T23:40:47.779Z,98334.39
2019-04-22T23:43:27.451Z,98325.45
2019-04-22T23:45:56.654Z,98319.06
2019-04-22T23:48:20.468Z,98313.07
2019-04-22T23:51:00.665Z,98306.55
2019-04-22T23:53:33.080Z,98302.16
2019-04-22T23:56:00.271Z,98311.36
2019-04-22T23:58:44.899Z,98300.55
